Nearby METAR Reports

   
KBNA - Nashville, TN
Updated: May 27 2018 3:53 am
Partly Cloudy  
Partly Cloudy  
   Wind: SSE 3.5 mph
Wind: SSE 3.5 mph
Temperature: 69.8°F
Dew Point: 66.2°F
Humidity: 88%
Barometer: 29.91 inHg
Clouds: Partly Cloudy
Visibility: 10 mi
Cloud details: Partly Cloudy 4572 m
KBNA 270853Z 15003KT 10SM SCT150 21/19 A2991 RMK AO2 SLP122 T02110194 53002
KGZS - Lawrenceburg, TN
Updated: May 27 2018 4:35 am
Mist, Overcast  
Mist, Overcast  
   Wind: Calm
Wind: Calm
Temperature: 66.2°F
Dew Point: 66.2°F
Humidity: 100%
Barometer: 29.91 inHg
Clouds: Overcast
Visibility: 2 mi
Cloud details: Overcast 61 m
KGZS 270935Z AUTO 00000KT 2 1/2SM BR OVC002 19/19 A2991 RMK A01 VIS 1 3/4V4
KOLV - Olive Branch, MS
Updated: May 26 2018 7:50 pm
NOT Current
Mostly Cloudy  
Mostly Cloudy  
   Wind: SSW 8.1 mph
Wind: SSW 8.1 mph
Temperature: 77°F
Dew Point: 73.4°F
Humidity: 89%
Barometer: 29.85 inHg
Clouds: Mostly Cloudy
Visibility: 10 mi
Cloud details: Partly Cloudy 823 m,
Partly Cloudy 1097.3 m,
Mostly Cloudy 1310.6 m
KOLV 270050Z 21007KT 10SM SCT027 SCT036 BKN043 25/23 A2985
KCHA - Chattanooga, TN
Updated: May 27 2018 3:53 am
Partly Cloudy  
Partly Cloudy  
   Wind: ENE 3.5 mph
Wind: ENE 3.5 mph
Temperature: 69.8°F
Dew Point: 68°F
Humidity: 94%
Barometer: 29.94 inHg
Clouds: Partly Cloudy
Visibility: 10 mi
Cloud details: Few Clouds 1036.3 m,
Partly Cloudy 2895.6 m
KCHA 270853Z 07003KT 10SM FEW034 SCT095 21/20 A2994 RMK AO2 RAE02 SLP131 P0000 60014 T02110200 53000
KMEM - Memphis, TN
Updated: May 27 2018 3:54 am
Clear  
Clear  
   Wind: varies 4.6 mph
Wind: varies 4.6 mph
Temperature: 69.8°F
Dew Point: 69.8°F
Humidity: 100%
Barometer: 29.87 inHg
Clouds: Clear
Visibility: 10 mi
Cloud details: Clear
KMEM 270854Z VRB04KT 10SM CLR 21/21 A2987 RMK AO2 SLP109 T02110206 55000 $
KTYS - Knoxville, TN
Updated: May 27 2018 3:53 am
Light Rain, Mist, Overcast  
Light Rain, Mist, Overcast  
   Wind: SW 5.8 mph
Wind: SW 5.8 mph
Temperature: 68°F
Dew Point: 68°F
Humidity: 100%
Barometer: 29.96 inHg
Clouds: Overcast
Visibility: 3 mi
Cloud details: Overcast 3352.8 m
KTYS 270853Z 23005KT 3SM -RA BR OVC110 20/20 A2996 RMK AO2 SFC VIS 6 SLP132 P0005 60025 T02000200 53001

Script developed by  Saratoga-weather.org Adapted for the template by  Weerstation Leuven